sensor_id;sensor_type;location;lat;lon;timestamp;P1;durP1;ratioP1;P2;durP2;ratioP2
48203;SDS011;33994;50.998;5.864;2022-09-30T00:00:39;12.18;;;6.30;;
48203;SDS011;33994;50.998;5.864;2022-09-30T00:03:25;12.45;;;6.85;;
48203;SDS011;33994;50.998;5.864;2022-09-30T00:06:11;13.00;;;7.00;;
48203;SDS011;33994;50.998;5.864;2022-09-30T00:08:57;12.80;;;7.10;;
48203;SDS011;33994;50.998;5.864;2022-09-30T00:11:43;14.18;;;7.50;;
48203;SDS011;33994;50.998;5.864;2022-09-30T00:14:29;10.40;;;6.95;;
48203;SDS011;33994;50.998;5.864;2022-09-30T00:17:15;11.10;;;7.05;;
48203;SDS011;33994;50.998;5.864;2022-09-30T00:20:01;12.60;;;6.60;;
48203;SDS011;33994;50.998;5.864;2022-09-30T00:22:46;13.15;;;7.63;;
48203;SDS011;33994;50.998;5.864;2022-09-30T00:25:31;19.55;;;6.65;;
48203;SDS011;33994;50.998;5.864;2022-09-30T00:28:17;14.80;;;6.97;;
48203;SDS011;33994;50.998;5.864;2022-09-30T00:31:04;15.05;;;7.55;;
48203;SDS011;33994;50.998;5.864;2022-09-30T00:33:51;10.43;;;7.03;;
48203;SDS011;33994;50.998;5.864;2022-09-30T00:36:51;10.75;;;7.30;;
48203;SDS011;33994;50.998;5.864;2022-09-30T00:39:38;12.20;;;7.15;;
48203;SDS011;33994;50.998;5.864;2022-09-30T00:42:23;11.68;;;6.93;;
48203;SDS011;33994;50.998;5.864;2022-09-30T00:45:13;13.48;;;7.13;;
48203;SDS011;33994;50.998;5.864;2022-09-30T00:50:56;14.52;;;8.27;;
48203;SDS011;33994;50.998;5.864;2022-09-30T00:53:47;10.40;;;5.68;;
48203;SDS011;33994;50.998;5.864;2022-09-30T00:56:38;11.77;;;7.97;;
48203;SDS011;33994;50.998;5.864;2022-09-30T00:59:31;12.02;;;7.90;;
48203;SDS011;33994;50.998;5.864;2022-09-30T01:02:21;13.40;;;7.13;;
48203;SDS011;33994;50.998;5.864;2022-09-30T01:05:07;11.02;;;7.53;;
48203;SDS011;33994;50.998;5.864;2022-09-30T01:07:55;8.80;;;5.83;;
48203;SDS011;33994;50.998;5.864;2022-09-30T01:10:42;10.48;;;6.95;;
48203;SDS011;33994;50.998;5.864;2022-09-30T01:13:28;11.60;;;7.88;;
48203;SDS011;33994;50.998;5.864;2022-09-30T01:44:59;10.85;;;7.63;;
48203;SDS011;33994;50.998;5.864;2022-09-30T01:47:59;13.77;;;8.85;;
48203;SDS011;33994;50.998;5.864;2022-09-30T01:51:07;13.02;;;7.82;;
48203;SDS011;33994;50.998;5.864;2022-09-30T01:54:08;19.15;;;9.45;;
48203;SDS011;33994;50.998;5.864;2022-09-30T01:58:03;12.00;;;7.72;;
48203;SDS011;33994;50.998;5.864;2022-09-30T02:00:31;15.68;;;8.90;;
48203;SDS011;33994;50.998;5.864;2022-09-30T02:03:22;13.32;;;8.52;;
48203;SDS011;33994;50.998;5.864;2022-09-30T02:06:24;14.90;;;8.73;;
48203;SDS011;33994;50.998;5.864;2022-09-30T02:09:17;14.15;;;9.13;;
48203;SDS011;33994;50.998;5.864;2022-09-30T02:12:10;19.35;;;8.63;;
48203;SDS011;33994;50.998;5.864;2022-09-30T02:15:01;16.33;;;9.00;;
48203;SDS011;33994;50.998;5.864;2022-09-30T02:17:57;14.25;;;8.85;;
48203;SDS011;33994;50.998;5.864;2022-09-30T02:20:50;12.88;;;8.88;;
48203;SDS011;33994;50.998;5.864;2022-09-30T02:23:41;13.50;;;9.05;;
48203;SDS011;33994;50.998;5.864;2022-09-30T02:26:30;14.15;;;9.57;;
48203;SDS011;33994;50.998;5.864;2022-09-30T02:29:24;16.00;;;9.38;;
48203;SDS011;33994;50.998;5.864;2022-09-30T02:32:14;15.55;;;9.15;;
48203;SDS011;33994;50.998;5.864;2022-09-30T02:35:09;13.95;;;9.30;;
48203;SDS011;33994;50.998;5.864;2022-09-30T02:38:02;16.38;;;9.52;;
48203;SDS011;33994;50.998;5.864;2022-09-30T02:41:02;13.23;;;8.90;;
48203;SDS011;33994;50.998;5.864;2022-09-30T02:43:53;14.75;;;10.65;;
48203;SDS011;33994;50.998;5.864;2022-09-30T02:46:45;16.65;;;9.80;;
48203;SDS011;33994;50.998;5.864;2022-09-30T02:52:41;15.75;;;11.00;;
48203;SDS011;33994;50.998;5.864;2022-09-30T02:58:42;15.10;;;10.15;;
48203;SDS011;33994;50.998;5.864;2022-09-30T03:01:30;18.35;;;10.65;;
48203;SDS011;33994;50.998;5.864;2022-09-30T03:04:18;15.95;;;10.43;;
48203;SDS011;33994;50.998;5.864;2022-09-30T03:07:08;15.50;;;10.88;;
48203;SDS011;33994;50.998;5.864;2022-09-30T03:09:57;17.80;;;10.82;;
48203;SDS011;33994;50.998;5.864;2022-09-30T03:21:50;16.85;;;10.82;;
48203;SDS011;33994;50.998;5.864;2022-09-30T03:30:50;15.75;;;10.25;;
48203;SDS011;33994;50.998;5.864;2022-09-30T03:33:54;18.90;;;11.27;;
48203;SDS011;33994;50.998;5.864;2022-09-30T03:42:52;21.13;;;11.57;;
48203;SDS011;33994;50.998;5.864;2022-09-30T03:45:45;18.75;;;11.18;;
48203;SDS011;33994;50.998;5.864;2022-09-30T03:51:25;17.70;;;11.50;;
48203;SDS011;33994;50.998;5.864;2022-09-30T03:54:12;18.37;;;11.47;;
48203;SDS011;33994;50.998;5.864;2022-09-30T03:56:59;13.20;;;10.00;;
48203;SDS011;33994;50.998;5.864;2022-09-30T03:59:48;21.05;;;11.20;;
48203;SDS011;33994;50.998;5.864;2022-09-30T04:02:33;17.65;;;11.27;;
48203;SDS011;33994;50.998;5.864;2022-09-30T04:05:19;18.95;;;10.55;;
48203;SDS011;33994;50.998;5.864;2022-09-30T04:08:04;17.52;;;10.98;;
48203;SDS011;33994;50.998;5.864;2022-09-30T04:10:50;19.10;;;11.52;;
48203;SDS011;33994;50.998;5.864;2022-09-30T04:13:36;17.20;;;10.63;;
48203;SDS011;33994;50.998;5.864;2022-09-30T04:16:21;16.63;;;11.00;;
48203;SDS011;33994;50.998;5.864;2022-09-30T04:19:07;16.60;;;10.93;;
48203;SDS011;33994;50.998;5.864;2022-09-30T04:21:52;22.17;;;10.15;;
48203;SDS011;33994;50.998;5.864;2022-09-30T04:24:39;19.92;;;11.15;;
48203;SDS011;33994;50.998;5.864;2022-09-30T04:27:24;19.27;;;10.63;;
48203;SDS011;33994;50.998;5.864;2022-09-30T04:30:10;19.33;;;11.73;;
48203;SDS011;33994;50.998;5.864;2022-09-30T04:32:55;19.58;;;11.20;;
48203;SDS011;33994;50.998;5.864;2022-09-30T04:35:41;18.35;;;11.45;;
48203;SDS011;33994;50.998;5.864;2022-09-30T04:38:26;17.05;;;11.18;;
48203;SDS011;33994;50.998;5.864;2022-09-30T04:41:13;20.77;;;12.23;;
48203;SDS011;33994;50.998;5.864;2022-09-30T04:44:01;15.63;;;10.90;;
48203;SDS011;33994;50.998;5.864;2022-09-30T04:46:48;20.08;;;11.30;;
48203;SDS011;33994;50.998;5.864;2022-09-30T04:49:34;17.00;;;10.30;;
48203;SDS011;33994;50.998;5.864;2022-09-30T04:52:19;19.50;;;11.05;;
48203;SDS011;33994;50.998;5.864;2022-09-30T04:55:05;17.92;;;10.68;;
48203;SDS011;33994;50.998;5.864;2022-09-30T04:57:52;17.75;;;11.27;;
48203;SDS011;33994;50.998;5.864;2022-09-30T05:00:38;21.80;;;11.55;;
48203;SDS011;33994;50.998;5.864;2022-09-30T05:03:23;19.70;;;10.52;;
48203;SDS011;33994;50.998;5.864;2022-09-30T05:06:09;21.85;;;11.23;;
48203;SDS011;33994;50.998;5.864;2022-09-30T05:08:55;20.15;;;11.88;;
48203;SDS011;33994;50.998;5.864;2022-09-30T05:11:41;24.05;;;11.32;;
48203;SDS011;33994;50.998;5.864;2022-09-30T05:14:27;19.67;;;10.75;;
48203;SDS011;33994;50.998;5.864;2022-09-30T05:17:12;17.73;;;10.68;;
48203;SDS011;33994;50.998;5.864;2022-09-30T05:19:58;18.83;;;12.15;;
48203;SDS011;33994;50.998;5.864;2022-09-30T05:22:43;16.23;;;11.27;;
48203;SDS011;33994;50.998;5.864;2022-09-30T05:28:16;19.77;;;12.13;;
48203;SDS011;33994;50.998;5.864;2022-09-30T05:31:03;18.48;;;11.13;;
48203;SDS011;33994;50.998;5.864;2022-09-30T05:33:49;21.42;;;12.18;;
48203;SDS011;33994;50.998;5.864;2022-09-30T05:36:34;20.17;;;12.30;;
48203;SDS011;33994;50.998;5.864;2022-09-30T05:39:20;25.58;;;13.07;;
48203;SDS011;33994;50.998;5.864;2022-09-30T05:42:05;19.20;;;11.25;;
48203;SDS011;33994;50.998;5.864;2022-09-30T05:44:51;21.23;;;12.48;;
48203;SDS011;33994;50.998;5.864;2022-09-30T05:47:37;20.85;;;12.00;;
48203;SDS011;33994;50.998;5.864;2022-09-30T05:50:22;22.73;;;12.85;;
48203;SDS011;33994;50.998;5.864;2022-09-30T05:53:09;21.17;;;12.07;;
48203;SDS011;33994;50.998;5.864;2022-09-30T05:55:54;23.00;;;12.98;;
48203;SDS011;33994;50.998;5.864;2022-09-30T05:58:39;22.85;;;12.10;;
48203;SDS011;33994;50.998;5.864;2022-09-30T06:01:25;20.58;;;11.75;;
48203;SDS011;33994;50.998;5.864;2022-09-30T06:04:10;20.98;;;12.68;;
48203;SDS011;33994;50.998;5.864;2022-09-30T06:06:56;19.08;;;11.98;;
48203;SDS011;33994;50.998;5.864;2022-09-30T06:09:42;22.90;;;12.02;;
48203;SDS011;33994;50.998;5.864;2022-09-30T06:12:29;24.35;;;12.82;;
48203;SDS011;33994;50.998;5.864;2022-09-30T06:15:14;23.80;;;12.63;;
48203;SDS011;33994;50.998;5.864;2022-09-30T06:18:01;21.42;;;11.63;;
48203;SDS011;33994;50.998;5.864;2022-09-30T06:20:48;23.23;;;12.07;;
48203;SDS011;33994;50.998;5.864;2022-09-30T06:23:33;22.98;;;12.27;;
48203;SDS011;33994;50.998;5.864;2022-09-30T06:26:19;22.40;;;12.85;;
48203;SDS011;33994;50.998;5.864;2022-09-30T06:29:07;19.77;;;11.52;;
48203;SDS011;33994;50.998;5.864;2022-09-30T06:31:53;22.20;;;12.30;;
48203;SDS011;33994;50.998;5.864;2022-09-30T06:34:46;21.45;;;11.75;;
48203;SDS011;33994;50.998;5.864;2022-09-30T06:37:32;20.42;;;12.18;;
48203;SDS011;33994;50.998;5.864;2022-09-30T06:40:20;22.90;;;11.93;;
48203;SDS011;33994;50.998;5.864;2022-09-30T06:43:05;20.42;;;11.57;;
48203;SDS011;33994;50.998;5.864;2022-09-30T06:45:51;21.48;;;12.73;;
48203;SDS011;33994;50.998;5.864;2022-09-30T06:48:37;19.85;;;11.60;;
48203;SDS011;33994;50.998;5.864;2022-09-30T06:51:23;19.52;;;11.27;;
48203;SDS011;33994;50.998;5.864;2022-09-30T06:54:09;17.20;;;10.75;;
48203;SDS011;33994;50.998;5.864;2022-09-30T06:56:56;19.88;;;11.05;;
48203;SDS011;33994;50.998;5.864;2022-09-30T06:59:41;18.35;;;11.38;;
48203;SDS011;33994;50.998;5.864;2022-09-30T07:02:28;16.08;;;10.27;;
48203;SDS011;33994;50.998;5.864;2022-09-30T07:05:14;18.55;;;10.82;;
48203;SDS011;33994;50.998;5.864;2022-09-30T07:08:01;21.33;;;11.65;;
48203;SDS011;33994;50.998;5.864;2022-09-30T07:10:46;19.33;;;10.82;;
48203;SDS011;33994;50.998;5.864;2022-09-30T07:13:32;17.88;;;11.35;;
48203;SDS011;33994;50.998;5.864;2022-09-30T07:16:18;20.50;;;9.82;;
48203;SDS011;33994;50.998;5.864;2022-09-30T07:19:04;19.45;;;12.05;;
48203;SDS011;33994;50.998;5.864;2022-09-30T07:21:52;26.48;;;13.02;;
48203;SDS011;33994;50.998;5.864;2022-09-30T07:24:38;17.33;;;11.27;;
48203;SDS011;33994;50.998;5.864;2022-09-30T07:27:24;19.10;;;11.45;;
48203;SDS011;33994;50.998;5.864;2022-09-30T07:30:15;18.60;;;11.25;;
48203;SDS011;33994;50.998;5.864;2022-09-30T07:33:01;17.88;;;10.73;;
48203;SDS011;33994;50.998;5.864;2022-09-30T07:35:53;16.70;;;10.85;;
48203;SDS011;33994;50.998;5.864;2022-09-30T07:38:40;21.08;;;12.13;;
48203;SDS011;33994;50.998;5.864;2022-09-30T07:41:26;14.70;;;8.63;;
48203;SDS011;33994;50.998;5.864;2022-09-30T07:44:12;19.88;;;12.45;;
48203;SDS011;33994;50.998;5.864;2022-09-30T07:46:59;22.17;;;12.35;;
48203;SDS011;33994;50.998;5.864;2022-09-30T07:49:45;24.85;;;14.73;;
48203;SDS011;33994;50.998;5.864;2022-09-30T07:52:31;24.42;;;13.85;;
48203;SDS011;33994;50.998;5.864;2022-09-30T07:55:16;29.83;;;15.25;;
48203;SDS011;33994;50.998;5.864;2022-09-30T07:58:02;26.08;;;14.10;;
48203;SDS011;33994;50.998;5.864;2022-09-30T08:00:49;23.25;;;13.90;;
48203;SDS011;33994;50.998;5.864;2022-09-30T08:03:35;25.13;;;13.95;;
48203;SDS011;33994;50.998;5.864;2022-09-30T08:06:23;22.05;;;13.45;;
48203;SDS011;33994;50.998;5.864;2022-09-30T08:09:09;23.48;;;13.73;;
48203;SDS011;33994;50.998;5.864;2022-09-30T08:11:55;21.05;;;13.60;;
48203;SDS011;33994;50.998;5.864;2022-09-30T08:14:41;27.48;;;14.07;;
48203;SDS011;33994;50.998;5.864;2022-09-30T08:17:27;21.67;;;15.07;;
48203;SDS011;33994;50.998;5.864;2022-09-30T08:20:13;25.88;;;14.85;;
48203;SDS011;33994;50.998;5.864;2022-09-30T08:22:58;24.05;;;13.10;;
48203;SDS011;33994;50.998;5.864;2022-09-30T08:25:44;27.55;;;14.30;;
48203;SDS011;33994;50.998;5.864;2022-09-30T08:28:29;26.05;;;15.63;;
48203;SDS011;33994;50.998;5.864;2022-09-30T08:31:16;25.83;;;15.15;;
48203;SDS011;33994;50.998;5.864;2022-09-30T08:34:07;23.60;;;15.23;;
48203;SDS011;33994;50.998;5.864;2022-09-30T08:36:52;30.20;;;14.43;;
48203;SDS011;33994;50.998;5.864;2022-09-30T08:39:38;23.98;;;14.20;;
48203;SDS011;33994;50.998;5.864;2022-09-30T08:56:35;22.52;;;12.40;;
48203;SDS011;33994;50.998;5.864;2022-09-30T08:59:31;17.38;;;11.35;;
48203;SDS011;33994;50.998;5.864;2022-09-30T09:05:15;17.60;;;10.52;;
48203;SDS011;33994;50.998;5.864;2022-09-30T09:08:12;15.43;;;9.27;;
48203;SDS011;33994;50.998;5.864;2022-09-30T09:14:29;14.60;;;8.70;;
48203;SDS011;33994;50.998;5.864;2022-09-30T09:20:32;16.15;;;8.55;;
48203;SDS011;33994;50.998;5.864;2022-09-30T09:23:24;16.20;;;8.32;;
48203;SDS011;33994;50.998;5.864;2022-09-30T09:26:11;14.70;;;8.40;;
48203;SDS011;33994;50.998;5.864;2022-09-30T09:32:16;13.65;;;8.15;;
48203;SDS011;33994;50.998;5.864;2022-09-30T09:35:12;13.00;;;7.53;;
48203;SDS011;33994;50.998;5.864;2022-09-30T09:38:10;18.08;;;9.27;;
48203;SDS011;33994;50.998;5.864;2022-09-30T09:44:26;14.68;;;8.00;;
48203;SDS011;33994;50.998;5.864;2022-09-30T09:47:16;13.00;;;6.82;;
48203;SDS011;33994;50.998;5.864;2022-09-30T09:50:05;11.73;;;7.18;;
48203;SDS011;33994;50.998;5.864;2022-09-30T09:56:35;14.43;;;7.38;;
48203;SDS011;33994;50.998;5.864;2022-09-30T09:59:21;17.30;;;8.25;;
48203;SDS011;33994;50.998;5.864;2022-09-30T10:02:29;16.98;;;8.50;;
48203;SDS011;33994;50.998;5.864;2022-09-30T10:05:22;15.55;;;8.38;;
48203;SDS011;33994;50.998;5.864;2022-09-30T10:08:21;10.90;;;7.45;;
48203;SDS011;33994;50.998;5.864;2022-09-30T10:11:18;12.52;;;6.70;;
48203;SDS011;33994;50.998;5.864;2022-09-30T10:14:11;14.73;;;8.40;;
48203;SDS011;33994;50.998;5.864;2022-09-30T10:17:03;13.68;;;8.30;;
48203;SDS011;33994;50.998;5.864;2022-09-30T10:19:50;12.00;;;7.10;;
48203;SDS011;33994;50.998;5.864;2022-09-30T10:22:37;12.45;;;7.22;;
48203;SDS011;33994;50.998;5.864;2022-09-30T10:25:23;12.57;;;7.68;;
48203;SDS011;33994;50.998;5.864;2022-09-30T10:28:22;14.23;;;8.13;;
48203;SDS011;33994;50.998;5.864;2022-09-30T10:31:24;17.05;;;8.35;;
48203;SDS011;33994;50.998;5.864;2022-09-30T10:34:21;16.58;;;9.43;;
48203;SDS011;33994;50.998;5.864;2022-09-30T10:37:16;12.15;;;7.43;;
48203;SDS011;33994;50.998;5.864;2022-09-30T10:40:05;12.05;;;7.43;;
48203;SDS011;33994;50.998;5.864;2022-09-30T10:42:59;12.13;;;7.57;;
48203;SDS011;33994;50.998;5.864;2022-09-30T10:45:48;13.63;;;7.38;;
48203;SDS011;33994;50.998;5.864;2022-09-30T10:48:37;17.42;;;8.43;;
48203;SDS011;33994;50.998;5.864;2022-09-30T10:51:26;15.20;;;7.65;;
48203;SDS011;33994;50.998;5.864;2022-09-30T10:54:42;12.57;;;8.95;;
48203;SDS011;33994;50.998;5.864;2022-09-30T10:57:33;14.65;;;8.43;;
48203;SDS011;33994;50.998;5.864;2022-09-30T11:00:21;16.45;;;9.75;;
48203;SDS011;33994;50.998;5.864;2022-09-30T11:03:11;16.80;;;9.15;;
48203;SDS011;33994;50.998;5.864;2022-09-30T11:06:00;20.52;;;9.07;;
48203;SDS011;33994;50.998;5.864;2022-09-30T11:08:48;13.50;;;8.80;;
48203;SDS011;33994;50.998;5.864;2022-09-30T11:11:44;14.45;;;8.55;;
48203;SDS011;33994;50.998;5.864;2022-09-30T11:14:45;16.02;;;7.95;;
48203;SDS011;33994;50.998;5.864;2022-09-30T11:17:39;15.38;;;8.18;;
48203;SDS011;33994;50.998;5.864;2022-09-30T11:20:27;11.48;;;6.78;;
48203;SDS011;33994;50.998;5.864;2022-09-30T11:23:26;11.20;;;6.85;;
48203;SDS011;33994;50.998;5.864;2022-09-30T11:41:45;9.70;;;6.32;;
48203;SDS011;33994;50.998;5.864;2022-09-30T11:44:40;9.00;;;5.82;;
48203;SDS011;33994;50.998;5.864;2022-09-30T11:53:25;11.70;;;4.07;;
48203;SDS011;33994;50.998;5.864;2022-09-30T11:56:32;7.38;;;4.07;;
48203;SDS011;33994;50.998;5.864;2022-09-30T12:02:58;11.10;;;3.22;;
48203;SDS011;33994;50.998;5.864;2022-09-30T12:05:52;7.55;;;3.53;;
48203;SDS011;33994;50.998;5.864;2022-09-30T12:08:47;5.65;;;2.85;;
48203;SDS011;33994;50.998;5.864;2022-09-30T12:11:43;5.80;;;3.15;;
48203;SDS011;33994;50.998;5.864;2022-09-30T12:20:40;5.13;;;1.70;;
48203;SDS011;33994;50.998;5.864;2022-09-30T12:23:52;4.45;;;1.92;;
48203;SDS011;33994;50.998;5.864;2022-09-30T12:26:42;3.15;;;2.10;;
48203;SDS011;33994;50.998;5.864;2022-09-30T12:32:53;2.50;;;1.13;;
48203;SDS011;33994;50.998;5.864;2022-09-30T12:41:57;2.78;;;1.30;;
48203;SDS011;33994;50.998;5.864;2022-09-30T12:48:17;2.33;;;1.42;;
48203;SDS011;33994;50.998;5.864;2022-09-30T12:51:05;3.78;;;1.40;;
48203;SDS011;33994;50.998;5.864;2022-09-30T12:53:52;10.90;;;2.55;;
48203;SDS011;33994;50.998;5.864;2022-09-30T12:56:43;5.10;;;1.50;;
48203;SDS011;33994;50.998;5.864;2022-09-30T12:59:33;3.28;;;1.52;;
48203;SDS011;33994;50.998;5.864;2022-09-30T13:02:29;2.05;;;1.48;;
48203;SDS011;33994;50.998;5.864;2022-09-30T13:11:05;2.55;;;1.40;;
48203;SDS011;33994;50.998;5.864;2022-09-30T13:19:54;3.90;;;1.63;;
48203;SDS011;33994;50.998;5.864;2022-09-30T13:22:40;2.60;;;1.30;;
48203;SDS011;33994;50.998;5.864;2022-09-30T13:25:27;2.38;;;1.20;;
48203;SDS011;33994;50.998;5.864;2022-09-30T13:28:39;2.20;;;1.20;;
48203;SDS011;33994;50.998;5.864;2022-09-30T13:31:25;2.25;;;1.20;;
48203;SDS011;33994;50.998;5.864;2022-09-30T13:37:25;1.83;;;1.10;;
48203;SDS011;33994;50.998;5.864;2022-09-30T13:40:16;3.40;;;1.50;;
48203;SDS011;33994;50.998;5.864;2022-09-30T13:43:06;3.65;;;1.17;;
48203;SDS011;33994;50.998;5.864;2022-09-30T13:46:02;2.92;;;1.10;;
48203;SDS011;33994;50.998;5.864;2022-09-30T13:49:03;1.50;;;0.90;;
48203;SDS011;33994;50.998;5.864;2022-09-30T13:51:56;1.58;;;0.90;;
48203;SDS011;33994;50.998;5.864;2022-09-30T13:54:41;1.45;;;1.10;;
48203;SDS011;33994;50.998;5.864;2022-09-30T13:57:33;1.58;;;1.13;;
48203;SDS011;33994;50.998;5.864;2022-09-30T14:22:57;1.05;;;0.80;;
48203;SDS011;33994;50.998;5.864;2022-09-30T14:28:46;2.63;;;0.60;;
48203;SDS011;33994;50.998;5.864;2022-09-30T14:35:43;2.45;;;0.90;;
48203;SDS011;33994;50.998;5.864;2022-09-30T14:38:31;1.58;;;0.95;;
48203;SDS011;33994;50.998;5.864;2022-09-30T14:41:19;1.40;;;0.80;;
48203;SDS011;33994;50.998;5.864;2022-09-30T14:44:10;1.70;;;1.30;;
48203;SDS011;33994;50.998;5.864;2022-09-30T14:47:00;2.75;;;1.08;;
48203;SDS011;33994;50.998;5.864;2022-09-30T14:49:48;2.58;;;1.13;;
48203;SDS011;33994;50.998;5.864;2022-09-30T14:52:35;2.13;;;1.20;;
48203;SDS011;33994;50.998;5.864;2022-09-30T14:58:22;2.40;;;0.90;;
48203;SDS011;33994;50.998;5.864;2022-09-30T15:01:15;1.80;;;1.02;;
48203;SDS011;33994;50.998;5.864;2022-09-30T15:04:23;2.53;;;1.13;;
48203;SDS011;33994;50.998;5.864;2022-09-30T15:07:11;2.30;;;0.75;;
48203;SDS011;33994;50.998;5.864;2022-09-30T15:09:59;1.80;;;0.80;;
48203;SDS011;33994;50.998;5.864;2022-09-30T15:12:46;2.30;;;0.90;;
48203;SDS011;33994;50.998;5.864;2022-09-30T15:15:34;3.63;;;1.02;;
48203;SDS011;33994;50.998;5.864;2022-09-30T15:18:39;1.55;;;0.95;;
48203;SDS011;33994;50.998;5.864;2022-09-30T15:21:29;1.77;;;1.02;;
48203;SDS011;33994;50.998;5.864;2022-09-30T15:24:16;2.25;;;0.90;;
48203;SDS011;33994;50.998;5.864;2022-09-30T15:27:04;1.73;;;1.02;;
48203;SDS011;33994;50.998;5.864;2022-09-30T15:29:54;2.15;;;0.90;;
48203;SDS011;33994;50.998;5.864;2022-09-30T15:32:43;2.28;;;1.45;;
48203;SDS011;33994;50.998;5.864;2022-09-30T15:35:30;2.03;;;0.77;;
48203;SDS011;33994;50.998;5.864;2022-09-30T15:38:18;2.67;;;0.60;;
48203;SDS011;33994;50.998;5.864;2022-09-30T15:41:08;1.02;;;0.70;;
48203;SDS011;33994;50.998;5.864;2022-09-30T15:43:55;3.90;;;0.80;;
48203;SDS011;33994;50.998;5.864;2022-09-30T15:49:49;3.00;;;1.00;;
48203;SDS011;33994;50.998;5.864;2022-09-30T15:52:36;3.65;;;1.00;;
48203;SDS011;33994;50.998;5.864;2022-09-30T15:55:34;1.77;;;0.63;;
48203;SDS011;33994;50.998;5.864;2022-09-30T16:01:12;3.08;;;0.90;;
48203;SDS011;33994;50.998;5.864;2022-09-30T16:07:07;1.20;;;0.60;;
48203;SDS011;33994;50.998;5.864;2022-09-30T16:09:54;1.80;;;0.60;;
48203;SDS011;33994;50.998;5.864;2022-09-30T16:12:41;3.03;;;1.25;;
48203;SDS011;33994;50.998;5.864;2022-09-30T16:15:35;1.08;;;0.60;;
48203;SDS011;33994;50.998;5.864;2022-09-30T16:18:24;2.78;;;0.93;;
48203;SDS011;33994;50.998;5.864;2022-09-30T16:21:26;4.95;;;0.80;;
48203;SDS011;33994;50.998;5.864;2022-09-30T16:27:22;1.80;;;1.15;;
48203;SDS011;33994;50.998;5.864;2022-09-30T16:30:12;2.65;;;1.08;;
48203;SDS011;33994;50.998;5.864;2022-09-30T16:33:02;2.47;;;1.52;;
48203;SDS011;33994;50.998;5.864;2022-09-30T16:35:49;3.05;;;1.17;;
48203;SDS011;33994;50.998;5.864;2022-09-30T16:38:34;3.15;;;1.02;;
48203;SDS011;33994;50.998;5.864;2022-09-30T16:41:20;1.75;;;0.90;;
48203;SDS011;33994;50.998;5.864;2022-09-30T16:44:06;6.13;;;1.40;;
48203;SDS011;33994;50.998;5.864;2022-09-30T16:46:51;1.95;;;1.20;;
48203;SDS011;33994;50.998;5.864;2022-09-30T16:49:37;3.25;;;2.20;;
48203;SDS011;33994;50.998;5.864;2022-09-30T16:52:23;2.05;;;1.42;;
48203;SDS011;33994;50.998;5.864;2022-09-30T16:55:09;2.50;;;1.08;;
48203;SDS011;33994;50.998;5.864;2022-09-30T16:57:55;2.83;;;1.33;;
48203;SDS011;33994;50.998;5.864;2022-09-30T17:00:41;6.85;;;1.20;;
48203;SDS011;33994;50.998;5.864;2022-09-30T17:03:28;2.35;;;1.08;;
48203;SDS011;33994;50.998;5.864;2022-09-30T17:06:14;2.97;;;1.05;;
48203;SDS011;33994;50.998;5.864;2022-09-30T17:09:02;1.17;;;0.77;;
48203;SDS011;33994;50.998;5.864;2022-09-30T17:11:48;3.33;;;1.27;;
48203;SDS011;33994;50.998;5.864;2022-09-30T17:14:35;2.60;;;1.35;;
48203;SDS011;33994;50.998;5.864;2022-09-30T17:17:21;2.88;;;1.17;;
48203;SDS011;33994;50.998;5.864;2022-09-30T17:20:07;1.83;;;1.23;;
48203;SDS011;33994;50.998;5.864;2022-09-30T17:22:52;2.70;;;1.33;;
48203;SDS011;33994;50.998;5.864;2022-09-30T17:25:39;3.65;;;1.30;;
48203;SDS011;33994;50.998;5.864;2022-09-30T17:28:25;3.13;;;1.20;;
48203;SDS011;33994;50.998;5.864;2022-09-30T17:31:10;4.32;;;1.10;;
48203;SDS011;33994;50.998;5.864;2022-09-30T17:33:56;3.35;;;1.27;;
48203;SDS011;33994;50.998;5.864;2022-09-30T17:36:42;1.63;;;1.05;;
48203;SDS011;33994;50.998;5.864;2022-09-30T17:39:27;3.97;;;1.52;;
48203;SDS011;33994;50.998;5.864;2022-09-30T17:42:13;3.22;;;1.58;;
48203;SDS011;33994;50.998;5.864;2022-09-30T17:45:17;3.35;;;1.95;;
48203;SDS011;33994;50.998;5.864;2022-09-30T17:48:03;1.95;;;1.38;;
48203;SDS011;33994;50.998;5.864;2022-09-30T17:50:50;3.40;;;1.40;;
48203;SDS011;33994;50.998;5.864;2022-09-30T17:53:37;6.43;;;1.70;;
48203;SDS011;33994;50.998;5.864;2022-09-30T17:56:23;4.05;;;1.50;;
48203;SDS011;33994;50.998;5.864;2022-09-30T17:59:08;5.18;;;1.58;;
48203;SDS011;33994;50.998;5.864;2022-09-30T18:01:54;5.82;;;1.58;;
48203;SDS011;33994;50.998;5.864;2022-09-30T18:04:40;7.30;;;1.87;;
48203;SDS011;33994;50.998;5.864;2022-09-30T18:07:25;4.15;;;2.03;;
48203;SDS011;33994;50.998;5.864;2022-09-30T18:10:12;3.53;;;2.08;;
48203;SDS011;33994;50.998;5.864;2022-09-30T18:12:57;2.92;;;2.08;;
48203;SDS011;33994;50.998;5.864;2022-09-30T18:15:43;5.57;;;2.40;;
48203;SDS011;33994;50.998;5.864;2022-09-30T18:18:28;3.25;;;2.30;;
48203;SDS011;33994;50.998;5.864;2022-09-30T18:21:14;3.38;;;2.25;;
48203;SDS011;33994;50.998;5.864;2022-09-30T18:23:59;4.80;;;1.83;;
48203;SDS011;33994;50.998;5.864;2022-09-30T18:26:45;2.92;;;1.80;;
48203;SDS011;33994;50.998;5.864;2022-09-30T18:29:30;2.97;;;1.70;;
48203;SDS011;33994;50.998;5.864;2022-09-30T18:32:16;2.83;;;1.83;;
48203;SDS011;33994;50.998;5.864;2022-09-30T18:35:02;3.65;;;1.58;;
48203;SDS011;33994;50.998;5.864;2022-09-30T18:37:50;3.83;;;1.88;;
48203;SDS011;33994;50.998;5.864;2022-09-30T18:40:36;1.77;;;1.40;;
48203;SDS011;33994;50.998;5.864;2022-09-30T18:43:26;2.08;;;1.45;;
48203;SDS011;33994;50.998;5.864;2022-09-30T18:46:11;5.35;;;1.77;;
48203;SDS011;33994;50.998;5.864;2022-09-30T18:48:57;3.95;;;2.45;;
48203;SDS011;33994;50.998;5.864;2022-09-30T18:51:42;4.40;;;2.50;;
48203;SDS011;33994;50.998;5.864;2022-09-30T18:54:28;8.20;;;2.95;;
48203;SDS011;33994;50.998;5.864;2022-09-30T18:57:13;5.35;;;2.60;;
48203;SDS011;33994;50.998;5.864;2022-09-30T19:00:00;7.20;;;2.45;;
48203;SDS011;33994;50.998;5.864;2022-09-30T19:02:46;6.65;;;2.83;;
48203;SDS011;33994;50.998;5.864;2022-09-30T19:05:31;3.65;;;2.28;;
48203;SDS011;33994;50.998;5.864;2022-09-30T19:08:16;5.80;;;2.70;;
48203;SDS011;33994;50.998;5.864;2022-09-30T19:11:06;4.47;;;2.30;;
48203;SDS011;33994;50.998;5.864;2022-09-30T19:13:54;4.28;;;1.90;;
48203;SDS011;33994;50.998;5.864;2022-09-30T19:16:43;3.90;;;2.45;;
48203;SDS011;33994;50.998;5.864;2022-09-30T19:19:29;5.20;;;2.60;;
48203;SDS011;33994;50.998;5.864;2022-09-30T19:22:15;3.72;;;1.88;;
48203;SDS011;33994;50.998;5.864;2022-09-30T19:25:00;2.95;;;2.17;;
48203;SDS011;33994;50.998;5.864;2022-09-30T19:27:46;2.90;;;2.05;;
48203;SDS011;33994;50.998;5.864;2022-09-30T19:30:32;5.95;;;2.03;;
48203;SDS011;33994;50.998;5.864;2022-09-30T19:33:17;2.75;;;2.00;;
48203;SDS011;33994;50.998;5.864;2022-09-30T19:36:08;5.05;;;1.80;;
48203;SDS011;33994;50.998;5.864;2022-09-30T19:38:54;3.03;;;1.92;;
48203;SDS011;33994;50.998;5.864;2022-09-30T19:41:43;4.55;;;1.83;;
48203;SDS011;33994;50.998;5.864;2022-09-30T19:44:30;3.47;;;2.10;;
48203;SDS011;33994;50.998;5.864;2022-09-30T19:47:15;8.25;;;2.20;;
48203;SDS011;33994;50.998;5.864;2022-09-30T19:50:02;2.63;;;1.85;;
48203;SDS011;33994;50.998;5.864;2022-09-30T19:52:49;3.13;;;1.80;;
48203;SDS011;33994;50.998;5.864;2022-09-30T19:55:35;3.10;;;2.15;;
48203;SDS011;33994;50.998;5.864;2022-09-30T19:58:21;5.32;;;1.92;;
48203;SDS011;33994;50.998;5.864;2022-09-30T20:01:06;2.83;;;2.40;;
48203;SDS011;33994;50.998;5.864;2022-09-30T20:03:53;4.70;;;2.75;;
48203;SDS011;33994;50.998;5.864;2022-09-30T20:06:40;3.65;;;2.92;;